sensor_id;sensor_type;location;lat;lon;timestamp;P1;durP1;ratioP1;P2;durP2;ratioP2
79650;SDS011;69121;41.708;21.762;2023-04-15T00:01:29;10.82;;;5.07;;
79650;SDS011;69121;41.708;21.762;2023-04-15T00:03:58;16.73;;;5.43;;
79650;SDS011;69121;41.708;21.762;2023-04-15T00:06:24;6.75;;;4.03;;
79650;SDS011;69121;41.708;21.762;2023-04-15T00:08:51;5.90;;;4.03;;
79650;SDS011;69121;41.708;21.762;2023-04-15T00:11:17;7.05;;;3.90;;
79650;SDS011;69121;41.708;21.762;2023-04-15T00:13:45;6.93;;;3.30;;
79650;SDS011;69121;41.708;21.762;2023-04-15T00:16:11;6.53;;;2.90;;
79650;SDS011;69121;41.708;21.762;2023-04-15T00:18:37;5.30;;;2.72;;
79650;SDS011;69121;41.708;21.762;2023-04-15T00:21:03;5.30;;;3.25;;
79650;SDS011;69121;41.708;21.762;2023-04-15T00:23:30;5.85;;;2.67;;
79650;SDS011;69121;41.708;21.762;2023-04-15T00:25:56;3.90;;;2.45;;
79650;SDS011;69121;41.708;21.762;2023-04-15T00:28:22;5.28;;;2.45;;
79650;SDS011;69121;41.708;21.762;2023-04-15T00:30:48;4.43;;;2.78;;
79650;SDS011;69121;41.708;21.762;2023-04-15T00:33:15;5.88;;;2.60;;
79650;SDS011;69121;41.708;21.762;2023-04-15T00:35:41;4.28;;;2.25;;
79650;SDS011;69121;41.708;21.762;2023-04-15T00:38:08;5.82;;;3.00;;
79650;SDS011;69121;41.708;21.762;2023-04-15T00:40:34;6.72;;;3.20;;
79650;SDS011;69121;41.708;21.762;2023-04-15T00:43:00;5.82;;;3.10;;
79650;SDS011;69121;41.708;21.762;2023-04-15T00:45:27;6.65;;;2.78;;
79650;SDS011;69121;41.708;21.762;2023-04-15T00:47:53;5.13;;;3.28;;
79650;SDS011;69121;41.708;21.762;2023-04-15T00:50:19;10.02;;;4.95;;
79650;SDS011;69121;41.708;21.762;2023-04-15T00:52:46;8.27;;;4.47;;
79650;SDS011;69121;41.708;21.762;2023-04-15T00:55:12;9.35;;;4.50;;
79650;SDS011;69121;41.708;21.762;2023-04-15T00:57:38;8.90;;;3.85;;
79650;SDS011;69121;41.708;21.762;2023-04-15T01:00:05;8.43;;;3.95;;
79650;SDS011;69121;41.708;21.762;2023-04-15T01:02:35;6.93;;;4.20;;
79650;SDS011;69121;41.708;21.762;2023-04-15T01:05:02;8.25;;;3.70;;
79650;SDS011;69121;41.708;21.762;2023-04-15T01:07:30;7.05;;;3.78;;
79650;SDS011;69121;41.708;21.762;2023-04-15T01:09:56;8.43;;;3.60;;
79650;SDS011;69121;41.708;21.762;2023-04-15T01:12:23;6.20;;;3.55;;
79650;SDS011;69121;41.708;21.762;2023-04-15T01:14:49;6.13;;;3.83;;
79650;SDS011;69121;41.708;21.762;2023-04-15T01:17:15;6.65;;;3.55;;
79650;SDS011;69121;41.708;21.762;2023-04-15T01:19:42;5.95;;;2.50;;
79650;SDS011;69121;41.708;21.762;2023-04-15T01:22:08;4.15;;;2.33;;
79650;SDS011;69121;41.708;21.762;2023-04-15T01:24:34;2.80;;;2.08;;
79650;SDS011;69121;41.708;21.762;2023-04-15T01:27:03;4.88;;;2.30;;
79650;SDS011;69121;41.708;21.762;2023-04-15T01:29:30;5.68;;;2.50;;
79650;SDS011;69121;41.708;21.762;2023-04-15T01:31:56;3.20;;;2.50;;
79650;SDS011;69121;41.708;21.762;2023-04-15T01:34:22;5.32;;;3.47;;
79650;SDS011;69121;41.708;21.762;2023-04-15T01:36:48;8.60;;;3.80;;
79650;SDS011;69121;41.708;21.762;2023-04-15T01:39:15;5.90;;;3.05;;
79650;SDS011;69121;41.708;21.762;2023-04-15T01:41:41;3.95;;;2.45;;
79650;SDS011;69121;41.708;21.762;2023-04-15T01:44:08;9.27;;;3.92;;
79650;SDS011;69121;41.708;21.762;2023-04-15T01:46:34;23.38;;;6.90;;
79650;SDS011;69121;41.708;21.762;2023-04-15T01:49:01;5.72;;;3.58;;
79650;SDS011;69121;41.708;21.762;2023-04-15T01:51:27;12.75;;;6.53;;
79650;SDS011;69121;41.708;21.762;2023-04-15T01:53:53;10.73;;;5.60;;
79650;SDS011;69121;41.708;21.762;2023-04-15T01:56:21;7.40;;;4.35;;
79650;SDS011;69121;41.708;21.762;2023-04-15T01:58:48;6.40;;;3.92;;
79650;SDS011;69121;41.708;21.762;2023-04-15T02:01:15;9.65;;;4.30;;
79650;SDS011;69121;41.708;21.762;2023-04-15T02:03:43;6.20;;;3.83;;
79650;SDS011;69121;41.708;21.762;2023-04-15T02:06:09;5.88;;;3.80;;
79650;SDS011;69121;41.708;21.762;2023-04-15T02:08:36;9.43;;;3.97;;
79650;SDS011;69121;41.708;21.762;2023-04-15T02:11:03;9.18;;;3.85;;
79650;SDS011;69121;41.708;21.762;2023-04-15T02:13:29;11.00;;;4.93;;
79650;SDS011;69121;41.708;21.762;2023-04-15T02:15:55;10.95;;;5.45;;
79650;SDS011;69121;41.708;21.762;2023-04-15T02:18:22;11.23;;;7.05;;
79650;SDS011;69121;41.708;21.762;2023-04-15T02:20:49;17.92;;;7.85;;
79650;SDS011;69121;41.708;21.762;2023-04-15T02:23:16;15.68;;;7.82;;
79650;SDS011;69121;41.708;21.762;2023-04-15T02:25:42;14.38;;;7.15;;
79650;SDS011;69121;41.708;21.762;2023-04-15T02:28:08;14.77;;;7.45;;
79650;SDS011;69121;41.708;21.762;2023-04-15T02:30:34;14.07;;;6.60;;
79650;SDS011;69121;41.708;21.762;2023-04-15T02:33:00;16.60;;;7.55;;
79650;SDS011;69121;41.708;21.762;2023-04-15T02:35:27;7.72;;;5.22;;
79650;SDS011;69121;41.708;21.762;2023-04-15T02:37:53;12.13;;;5.45;;
79650;SDS011;69121;41.708;21.762;2023-04-15T02:40:19;9.73;;;4.90;;
79650;SDS011;69121;41.708;21.762;2023-04-15T02:42:45;9.65;;;5.28;;
79650;SDS011;69121;41.708;21.762;2023-04-15T02:45:12;10.85;;;5.93;;
79650;SDS011;69121;41.708;21.762;2023-04-15T02:47:38;10.35;;;5.43;;
79650;SDS011;69121;41.708;21.762;2023-04-15T02:50:08;13.45;;;4.78;;
79650;SDS011;69121;41.708;21.762;2023-04-15T02:52:39;13.13;;;4.32;;
79650;SDS011;69121;41.708;21.762;2023-04-15T02:55:06;12.02;;;5.90;;
79650;SDS011;69121;41.708;21.762;2023-04-15T02:57:32;6.80;;;4.20;;
79650;SDS011;69121;41.708;21.762;2023-04-15T03:00:01;5.38;;;3.00;;
79650;SDS011;69121;41.708;21.762;2023-04-15T03:02:32;5.07;;;2.83;;
79650;SDS011;69121;41.708;21.762;2023-04-15T03:04:58;4.30;;;2.72;;
79650;SDS011;69121;41.708;21.762;2023-04-15T03:07:24;3.75;;;2.60;;
79650;SDS011;69121;41.708;21.762;2023-04-15T03:09:50;4.72;;;2.63;;
79650;SDS011;69121;41.708;21.762;2023-04-15T03:12:17;5.75;;;2.63;;
79650;SDS011;69121;41.708;21.762;2023-04-15T03:14:43;8.43;;;5.00;;
79650;SDS011;69121;41.708;21.762;2023-04-15T03:17:09;14.25;;;7.50;;
79650;SDS011;69121;41.708;21.762;2023-04-15T03:19:35;14.63;;;7.20;;
79650;SDS011;69121;41.708;21.762;2023-04-15T03:22:01;9.07;;;4.57;;
79650;SDS011;69121;41.708;21.762;2023-04-15T03:24:27;11.23;;;4.68;;
79650;SDS011;69121;41.708;21.762;2023-04-15T03:26:54;7.32;;;4.32;;
79650;SDS011;69121;41.708;21.762;2023-04-15T03:31:47;11.90;;;4.45;;
79650;SDS011;69121;41.708;21.762;2023-04-15T03:34:13;9.10;;;3.92;;
79650;SDS011;69121;41.708;21.762;2023-04-15T03:36:39;7.53;;;3.60;;
79650;SDS011;69121;41.708;21.762;2023-04-15T03:39:06;6.60;;;3.42;;
79650;SDS011;69121;41.708;21.762;2023-04-15T03:41:32;8.93;;;4.40;;
79650;SDS011;69121;41.708;21.762;2023-04-15T03:43:58;8.77;;;4.15;;
79650;SDS011;69121;41.708;21.762;2023-04-15T03:46:24;14.48;;;8.18;;
79650;SDS011;69121;41.708;21.762;2023-04-15T03:48:50;14.15;;;6.38;;
79650;SDS011;69121;41.708;21.762;2023-04-15T03:51:16;18.88;;;7.82;;
79650;SDS011;69121;41.708;21.762;2023-04-15T03:53:43;15.90;;;6.60;;
79650;SDS011;69121;41.708;21.762;2023-04-15T03:56:09;8.57;;;5.10;;
79650;SDS011;69121;41.708;21.762;2023-04-15T03:58:35;11.23;;;6.90;;
79650;SDS011;69121;41.708;21.762;2023-04-15T04:01:01;15.10;;;6.70;;
79650;SDS011;69121;41.708;21.762;2023-04-15T04:03:27;12.35;;;6.78;;
79650;SDS011;69121;41.708;21.762;2023-04-15T04:05:54;9.27;;;5.03;;
79650;SDS011;69121;41.708;21.762;2023-04-15T04:08:20;9.63;;;5.35;;
79650;SDS011;69121;41.708;21.762;2023-04-15T04:10:47;9.85;;;4.50;;
79650;SDS011;69121;41.708;21.762;2023-04-15T04:13:13;17.63;;;8.10;;
79650;SDS011;69121;41.708;21.762;2023-04-15T04:15:39;9.02;;;5.25;;
79650;SDS011;69121;41.708;21.762;2023-04-15T04:18:05;7.28;;;4.22;;
79650;SDS011;69121;41.708;21.762;2023-04-15T04:20:32;12.35;;;4.63;;
79650;SDS011;69121;41.708;21.762;2023-04-15T04:22:58;9.50;;;3.55;;
79650;SDS011;69121;41.708;21.762;2023-04-15T04:27:52;6.45;;;4.03;;
79650;SDS011;69121;41.708;21.762;2023-04-15T04:30:19;6.57;;;3.42;;
79650;SDS011;69121;41.708;21.762;2023-04-15T04:32:45;8.13;;;3.70;;
79650;SDS011;69121;41.708;21.762;2023-04-15T04:35:11;16.77;;;7.03;;
79650;SDS011;69121;41.708;21.762;2023-04-15T04:37:37;13.75;;;4.93;;
79650;SDS011;69121;41.708;21.762;2023-04-15T04:40:04;7.15;;;4.20;;
79650;SDS011;69121;41.708;21.762;2023-04-15T04:42:32;8.18;;;3.70;;
79650;SDS011;69121;41.708;21.762;2023-04-15T04:44:58;6.13;;;3.55;;
79650;SDS011;69121;41.708;21.762;2023-04-15T04:47:24;15.30;;;3.90;;
79650;SDS011;69121;41.708;21.762;2023-04-15T04:49:50;9.95;;;3.25;;
79650;SDS011;69121;41.708;21.762;2023-04-15T04:52:16;5.35;;;2.90;;
79650;SDS011;69121;41.708;21.762;2023-04-15T04:54:42;12.40;;;4.03;;
79650;SDS011;69121;41.708;21.762;2023-04-15T04:57:08;7.50;;;4.03;;
79650;SDS011;69121;41.708;21.762;2023-04-15T04:59:37;8.88;;;3.40;;
79650;SDS011;69121;41.708;21.762;2023-04-15T05:02:03;11.90;;;6.30;;
79650;SDS011;69121;41.708;21.762;2023-04-15T05:04:30;13.82;;;7.15;;
79650;SDS011;69121;41.708;21.762;2023-04-15T05:06:57;12.02;;;4.53;;
79650;SDS011;69121;41.708;21.762;2023-04-15T05:09:23;7.85;;;4.03;;
79650;SDS011;69121;41.708;21.762;2023-04-15T05:11:50;5.53;;;3.08;;
79650;SDS011;69121;41.708;21.762;2023-04-15T05:14:16;5.63;;;2.45;;
79650;SDS011;69121;41.708;21.762;2023-04-15T05:16:42;11.05;;;3.50;;
79650;SDS011;69121;41.708;21.762;2023-04-15T05:19:08;8.60;;;2.90;;
79650;SDS011;69121;41.708;21.762;2023-04-15T05:21:34;19.45;;;4.45;;
79650;SDS011;69121;41.708;21.762;2023-04-15T05:24:00;10.90;;;3.78;;
79650;SDS011;69121;41.708;21.762;2023-04-15T05:26:26;7.13;;;3.53;;
79650;SDS011;69121;41.708;21.762;2023-04-15T05:28:53;26.02;;;4.35;;
79650;SDS011;69121;41.708;21.762;2023-04-15T05:31:20;16.48;;;5.00;;
79650;SDS011;69121;41.708;21.762;2023-04-15T05:33:46;21.13;;;8.73;;
79650;SDS011;69121;41.708;21.762;2023-04-15T05:36:12;28.77;;;14.05;;
79650;SDS011;69121;41.708;21.762;2023-04-15T05:38:38;8.48;;;4.35;;
79650;SDS011;69121;41.708;21.762;2023-04-15T05:41:05;6.53;;;3.35;;
79650;SDS011;69121;41.708;21.762;2023-04-15T05:43:31;7.82;;;3.33;;
79650;SDS011;69121;41.708;21.762;2023-04-15T05:45:57;15.73;;;7.95;;
79650;SDS011;69121;41.708;21.762;2023-04-15T05:48:23;10.35;;;3.33;;
79650;SDS011;69121;41.708;21.762;2023-04-15T05:50:49;12.82;;;7.45;;
79650;SDS011;69121;41.708;21.762;2023-04-15T05:53:15;25.35;;;13.00;;
79650;SDS011;69121;41.708;21.762;2023-04-15T05:55:41;22.83;;;11.55;;
79650;SDS011;69121;41.708;21.762;2023-04-15T05:58:07;22.88;;;6.97;;
79650;SDS011;69121;41.708;21.762;2023-04-15T06:00:33;15.63;;;8.82;;
79650;SDS011;69121;41.708;21.762;2023-04-15T06:03:00;12.32;;;7.07;;
79650;SDS011;69121;41.708;21.762;2023-04-15T06:05:26;10.80;;;4.63;;
79650;SDS011;69121;41.708;21.762;2023-04-15T06:07:54;8.10;;;4.43;;
79650;SDS011;69121;41.708;21.762;2023-04-15T06:10:21;8.60;;;7.32;;
79650;SDS011;69121;41.708;21.762;2023-04-15T06:12:47;9.00;;;3.85;;
79650;SDS011;69121;41.708;21.762;2023-04-15T06:15:13;8.43;;;4.35;;
79650;SDS011;69121;41.708;21.762;2023-04-15T06:17:40;8.38;;;5.00;;
79650;SDS011;69121;41.708;21.762;2023-04-15T06:20:07;10.45;;;7.28;;
79650;SDS011;69121;41.708;21.762;2023-04-15T06:22:33;24.73;;;8.73;;
79650;SDS011;69121;41.708;21.762;2023-04-15T06:24:59;18.70;;;6.57;;
79650;SDS011;69121;41.708;21.762;2023-04-15T06:27:25;9.05;;;4.57;;
79650;SDS011;69121;41.708;21.762;2023-04-15T06:29:51;8.00;;;4.32;;
79650;SDS011;69121;41.708;21.762;2023-04-15T06:32:17;8.32;;;4.15;;
79650;SDS011;69121;41.708;21.762;2023-04-15T06:34:44;6.20;;;3.90;;
79650;SDS011;69121;41.708;21.762;2023-04-15T06:37:11;12.32;;;5.57;;
79650;SDS011;69121;41.708;21.762;2023-04-15T06:39:40;10.18;;;5.80;;
79650;SDS011;69121;41.708;21.762;2023-04-15T06:44:33;12.55;;;6.25;;
79650;SDS011;69121;41.708;21.762;2023-04-15T06:47:01;15.88;;;8.75;;
79650;SDS011;69121;41.708;21.762;2023-04-15T06:49:27;12.52;;;5.00;;
79650;SDS011;69121;41.708;21.762;2023-04-15T06:51:53;7.30;;;3.05;;
79650;SDS011;69121;41.708;21.762;2023-04-15T06:54:20;7.82;;;3.53;;
79650;SDS011;69121;41.708;21.762;2023-04-15T06:56:46;5.80;;;3.10;;
79650;SDS011;69121;41.708;21.762;2023-04-15T06:59:12;8.07;;;3.95;;
79650;SDS011;69121;41.708;21.762;2023-04-15T07:01:41;10.25;;;4.28;;
79650;SDS011;69121;41.708;21.762;2023-04-15T07:04:08;10.07;;;4.78;;
79650;SDS011;69121;41.708;21.762;2023-04-15T07:06:35;9.73;;;4.50;;
79650;SDS011;69121;41.708;21.762;2023-04-15T07:09:01;7.93;;;4.07;;
79650;SDS011;69121;41.708;21.762;2023-04-15T07:11:29;12.15;;;5.22;;
79650;SDS011;69121;41.708;21.762;2023-04-15T07:13:56;35.17;;;7.82;;
79650;SDS011;69121;41.708;21.762;2023-04-15T07:16:22;10.60;;;4.88;;
79650;SDS011;69121;41.708;21.762;2023-04-15T07:18:49;11.63;;;5.07;;
79650;SDS011;69121;41.708;21.762;2023-04-15T07:21:15;14.10;;;4.50;;
79650;SDS011;69121;41.708;21.762;2023-04-15T07:23:41;8.52;;;5.40;;
79650;SDS011;69121;41.708;21.762;2023-04-15T07:26:08;9.60;;;5.50;;
79650;SDS011;69121;41.708;21.762;2023-04-15T07:28:35;27.60;;;8.48;;
79650;SDS011;69121;41.708;21.762;2023-04-15T07:31:01;14.85;;;6.78;;
79650;SDS011;69121;41.708;21.762;2023-04-15T07:33:27;12.10;;;5.93;;
79650;SDS011;69121;41.708;21.762;2023-04-15T07:35:53;12.20;;;4.68;;
79650;SDS011;69121;41.708;21.762;2023-04-15T07:38:19;9.68;;;4.25;;
79650;SDS011;69121;41.708;21.762;2023-04-15T07:40:45;9.90;;;5.20;;
79650;SDS011;69121;41.708;21.762;2023-04-15T07:43:12;16.05;;;7.03;;
79650;SDS011;69121;41.708;21.762;2023-04-15T07:45:38;12.10;;;6.68;;
79650;SDS011;69121;41.708;21.762;2023-04-15T07:48:04;12.50;;;5.40;;
79650;SDS011;69121;41.708;21.762;2023-04-15T07:50:32;14.88;;;6.25;;
79650;SDS011;69121;41.708;21.762;2023-04-15T07:52:58;9.30;;;4.32;;
79650;SDS011;69121;41.708;21.762;2023-04-15T07:55:24;11.80;;;5.57;;
79650;SDS011;69121;41.708;21.762;2023-04-15T07:57:51;7.72;;;3.95;;
79650;SDS011;69121;41.708;21.762;2023-04-15T08:00:17;3.20;;;1.33;;
79650;SDS011;69121;41.708;21.762;2023-04-15T08:05:12;3.95;;;1.42;;
79650;SDS011;69121;41.708;21.762;2023-04-15T08:07:39;6.63;;;1.80;;
79650;SDS011;69121;41.708;21.762;2023-04-15T08:10:05;2.25;;;0.90;;
79650;SDS011;69121;41.708;21.762;2023-04-15T08:12:31;5.32;;;1.30;;
79650;SDS011;69121;41.708;21.762;2023-04-15T08:14:57;2.22;;;1.02;;
79650;SDS011;69121;41.708;21.762;2023-04-15T08:17:25;4.85;;;1.40;;
79650;SDS011;69121;41.708;21.762;2023-04-15T08:19:51;3.83;;;1.23;;
79650;SDS011;69121;41.708;21.762;2023-04-15T08:22:17;3.15;;;1.02;;
79650;SDS011;69121;41.708;21.762;2023-04-15T08:24:43;5.35;;;1.85;;
79650;SDS011;69121;41.708;21.762;2023-04-15T08:27:10;5.85;;;1.45;;
79650;SDS011;69121;41.708;21.762;2023-04-15T08:29:37;6.45;;;1.40;;
79650;SDS011;69121;41.708;21.762;2023-04-15T08:32:04;5.18;;;1.63;;
79650;SDS011;69121;41.708;21.762;2023-04-15T08:36:58;3.03;;;1.40;;
79650;SDS011;69121;41.708;21.762;2023-04-15T08:39:25;8.73;;;1.95;;
79650;SDS011;69121;41.708;21.762;2023-04-15T08:41:55;2.25;;;0.80;;
79650;SDS011;69121;41.708;21.762;2023-04-15T08:44:22;5.50;;;2.45;;
79650;SDS011;69121;41.708;21.762;2023-04-15T08:46:50;4.20;;;2.92;;
79650;SDS011;69121;41.708;21.762;2023-04-15T08:51:42;5.30;;;1.20;;
79650;SDS011;69121;41.708;21.762;2023-04-15T08:54:09;4.63;;;1.33;;
79650;SDS011;69121;41.708;21.762;2023-04-15T08:56:37;2.80;;;1.00;;
79650;SDS011;69121;41.708;21.762;2023-04-15T08:59:05;7.72;;;2.20;;
79650;SDS011;69121;41.708;21.762;2023-04-15T09:01:32;4.50;;;1.90;;
79650;SDS011;69121;41.708;21.762;2023-04-15T09:03:58;7.93;;;3.22;;
79650;SDS011;69121;41.708;21.762;2023-04-15T09:06:27;9.23;;;2.15;;
79650;SDS011;69121;41.708;21.762;2023-04-15T09:08:53;7.53;;;3.03;;
79650;SDS011;69121;41.708;21.762;2023-04-15T09:11:20;9.05;;;2.05;;
79650;SDS011;69121;41.708;21.762;2023-04-15T09:13:47;7.10;;;2.50;;
79650;SDS011;69121;41.708;21.762;2023-04-15T09:16:14;9.85;;;3.22;;
79650;SDS011;69121;41.708;21.762;2023-04-15T09:18:40;7.90;;;1.67;;
79650;SDS011;69121;41.708;21.762;2023-04-15T09:21:15;4.18;;;1.33;;
79650;SDS011;69121;41.708;21.762;2023-04-15T09:23:58;2.60;;;1.20;;
79650;SDS011;69121;41.708;21.762;2023-04-15T09:26:32;3.25;;;1.63;;
79650;SDS011;69121;41.708;21.762;2023-04-15T09:29:05;2.60;;;1.20;;
79650;SDS011;69121;41.708;21.762;2023-04-15T09:31:31;3.67;;;1.00;;
79650;SDS011;69121;41.708;21.762;2023-04-15T09:33:57;3.03;;;1.30;;
79650;SDS011;69121;41.708;21.762;2023-04-15T09:36:24;4.40;;;1.52;;
79650;SDS011;69121;41.708;21.762;2023-04-15T09:38:55;3.58;;;1.10;;
79650;SDS011;69121;41.708;21.762;2023-04-15T09:41:21;3.20;;;1.20;;
79650;SDS011;69121;41.708;21.762;2023-04-15T09:43:49;6.63;;;2.95;;
79650;SDS011;69121;41.708;21.762;2023-04-15T09:46:15;2.58;;;1.20;;
79650;SDS011;69121;41.708;21.762;2023-04-15T09:48:41;2.42;;;0.80;;
79650;SDS011;69121;41.708;21.762;2023-04-15T09:51:08;4.20;;;2.05;;
79650;SDS011;69121;41.708;21.762;2023-04-15T09:53:36;4.97;;;2.03;;
79650;SDS011;69121;41.708;21.762;2023-04-15T09:56:05;4.22;;;1.67;;
79650;SDS011;69121;41.708;21.762;2023-04-15T09:58:33;6.97;;;2.30;;
79650;SDS011;69121;41.708;21.762;2023-04-15T10:01:01;6.70;;;2.58;;
79650;SDS011;69121;41.708;21.762;2023-04-15T10:03:28;3.20;;;1.80;;
79650;SDS011;69121;41.708;21.762;2023-04-15T10:05:56;5.28;;;2.00;;
79650;SDS011;69121;41.708;21.762;2023-04-15T10:10:49;7.03;;;1.45;;
79650;SDS011;69121;41.708;21.762;2023-04-15T10:13:20;4.05;;;1.52;;
79650;SDS011;69121;41.708;21.762;2023-04-15T10:15:54;5.57;;;1.80;;
79650;SDS011;69121;41.708;21.762;2023-04-15T10:18:21;4.88;;;2.40;;
79650;SDS011;69121;41.708;21.762;2023-04-15T10:20:48;6.65;;;2.58;;
79650;SDS011;69121;41.708;21.762;2023-04-15T10:23:15;5.47;;;1.83;;
79650;SDS011;69121;41.708;21.762;2023-04-15T10:25:43;2.85;;;1.50;;
79650;SDS011;69121;41.708;21.762;2023-04-15T10:28:10;4.18;;;1.10;;
79650;SDS011;69121;41.708;21.762;2023-04-15T10:30:37;4.78;;;1.77;;
79650;SDS011;69121;41.708;21.762;2023-04-15T10:33:03;4.65;;;1.10;;
79650;SDS011;69121;41.708;21.762;2023-04-15T10:35:30;4.82;;;2.03;;
79650;SDS011;69121;41.708;21.762;2023-04-15T10:37:58;4.70;;;1.80;;
79650;SDS011;69121;41.708;21.762;2023-04-15T10:40:31;4.25;;;1.48;;
79650;SDS011;69121;41.708;21.762;2023-04-15T10:45:43;5.25;;;2.17;;
79650;SDS011;69121;41.708;21.762;2023-04-15T10:48:10;7.55;;;2.50;;
79650;SDS011;69121;41.708;21.762;2023-04-15T10:50:41;7.25;;;3.85;;
79650;SDS011;69121;41.708;21.762;2023-04-15T10:53:29;6.10;;;1.60;;
79650;SDS011;69121;41.708;21.762;2023-04-15T10:55:56;7.05;;;1.80;;
79650;SDS011;69121;41.708;21.762;2023-04-15T10:58:23;4.75;;;2.10;;
79650;SDS011;69121;41.708;21.762;2023-04-15T11:00:50;3.35;;;1.42;;
79650;SDS011;69121;41.708;21.762;2023-04-15T11:03:20;4.28;;;1.60;;
79650;SDS011;69121;41.708;21.762;2023-04-15T11:05:58;3.17;;;1.30;;
79650;SDS011;69121;41.708;21.762;2023-04-15T11:10:52;4.72;;;1.70;;
79650;SDS011;69121;41.708;21.762;2023-04-15T11:13:19;3.50;;;1.60;;
79650;SDS011;69121;41.708;21.762;2023-04-15T11:15:47;2.70;;;1.52;;
79650;SDS011;69121;41.708;21.762;2023-04-15T11:18:15;3.97;;;1.48;;
79650;SDS011;69121;41.708;21.762;2023-04-15T11:20:42;6.88;;;2.35;;
79650;SDS011;69121;41.708;21.762;2023-04-15T11:23:12;4.85;;;1.50;;
79650;SDS011;69121;41.708;21.762;2023-04-15T11:25:38;4.45;;;1.48;;
79650;SDS011;69121;41.708;21.762;2023-04-15T11:28:04;4.00;;;1.27;;
79650;SDS011;69121;41.708;21.762;2023-04-15T11:30:35;4.40;;;1.30;;
79650;SDS011;69121;41.708;21.762;2023-04-15T11:33:06;3.67;;;1.25;;
79650;SDS011;69121;41.708;21.762;2023-04-15T11:35:32;15.77;;;2.08;;
79650;SDS011;69121;41.708;21.762;2023-04-15T11:38:02;3.47;;;1.17;;
79650;SDS011;69121;41.708;21.762;2023-04-15T11:40:29;2.58;;;1.40;;
79650;SDS011;69121;41.708;21.762;2023-04-15T11:43:10;5.38;;;1.40;;
79650;SDS011;69121;41.708;21.762;2023-04-15T11:45:37;5.05;;;1.63;;
79650;SDS011;69121;41.708;21.762;2023-04-15T11:48:07;5.05;;;1.95;;
79650;SDS011;69121;41.708;21.762;2023-04-15T11:50:34;5.15;;;2.30;;
79650;SDS011;69121;41.708;21.762;2023-04-15T11:55:27;4.65;;;2.28;;
79650;SDS011;69121;41.708;21.762;2023-04-15T12:00:40;4.72;;;2.47;;
79650;SDS011;69121;41.708;21.762;2023-04-15T12:03:16;2.50;;;1.25;;
79650;SDS011;69121;41.708;21.762;2023-04-15T12:11:13;4.43;;;1.98;;
79650;SDS011;69121;41.708;21.762;2023-04-15T12:13:46;3.47;;;1.33;;
79650;SDS011;69121;41.708;21.762;2023-04-15T12:16:17;5.85;;;2.20;;
79650;SDS011;69121;41.708;21.762;2023-04-15T12:18:49;3.75;;;2.45;;
79650;SDS011;69121;41.708;21.762;2023-04-15T12:21:18;4.97;;;2.17;;
79650;SDS011;69121;41.708;21.762;2023-04-15T12:23:47;4.45;;;1.95;;
79650;SDS011;69121;41.708;21.762;2023-04-15T12:26:14;5.15;;;1.70;;
79650;SDS011;69121;41.708;21.762;2023-04-15T12:28:41;4.90;;;2.20;;
79650;SDS011;69121;41.708;21.762;2023-04-15T12:31:10;6.53;;;2.90;;
79650;SDS011;69121;41.708;21.762;2023-04-15T12:33:37;5.80;;;2.67;;
79650;SDS011;69121;41.708;21.762;2023-04-15T12:38:30;5.47;;;2.28;;
79650;SDS011;69121;41.708;21.762;2023-04-15T12:40:59;5.38;;;2.60;;
79650;SDS011;69121;41.708;21.762;2023-04-15T12:43:25;4.45;;;1.90;;
79650;SDS011;69121;41.708;21.762;2023-04-15T12:45:51;5.97;;;2.40;;
79650;SDS011;69121;41.708;21.762;2023-04-15T12:48:18;5.13;;;1.52;;
79650;SDS011;69121;41.708;21.762;2023-04-15T12:50:44;3.13;;;1.30;;
79650;SDS011;69121;41.708;21.762;2023-04-15T12:53:10;9.05;;;3.08;;
79650;SDS011;69121;41.708;21.762;2023-04-15T12:55:37;4.50;;;1.50;;
79650;SDS011;69121;41.708;21.762;2023-04-15T12:58:03;4.35;;;1.60;;
79650;SDS011;69121;41.708;21.762;2023-04-15T13:02:58;6.45;;;3.10;;
79650;SDS011;69121;41.708;21.762;2023-04-15T13:05:24;8.38;;;3.08;;
79650;SDS011;69121;41.708;21.762;2023-04-15T13:07:50;3.47;;;1.60;;
79650;SDS011;69121;41.708;21.762;2023-04-15T13:10:16;5.55;;;2.85;;
79650;SDS011;69121;41.708;21.762;2023-04-15T13:12:43;3.95;;;2.05;;
79650;SDS011;69121;41.708;21.762;2023-04-15T13:15:13;3.47;;;1.23;;
79650;SDS011;69121;41.708;21.762;2023-04-15T13:17:39;7.15;;;2.35;;
79650;SDS011;69121;41.708;21.762;2023-04-15T13:20:05;4.13;;;1.02;;
79650;SDS011;69121;41.708;21.762;2023-04-15T13:22:32;16.02;;;8.75;;
79650;SDS011;69121;41.708;21.762;2023-04-15T13:24:59;9.57;;;2.83;;
79650;SDS011;69121;41.708;21.762;2023-04-15T13:27:25;5.25;;;2.28;;
79650;SDS011;69121;41.708;21.762;2023-04-15T13:29:51;5.88;;;3.05;;
79650;SDS011;69121;41.708;21.762;2023-04-15T13:32:17;10.52;;;6.30;;
79650;SDS011;69121;41.708;21.762;2023-04-15T13:34:43;9.15;;;4.63;;
79650;SDS011;69121;41.708;21.762;2023-04-15T13:37:09;9.38;;;4.50;;
79650;SDS011;69121;41.708;21.762;2023-04-15T13:39:36;5.93;;;2.47;;
79650;SDS011;69121;41.708;21.762;2023-04-15T13:42:02;4.28;;;1.85;;
79650;SDS011;69121;41.708;21.762;2023-04-15T13:44:28;5.25;;;2.00;;
79650;SDS011;69121;41.708;21.762;2023-04-15T13:46:54;7.03;;;3.50;;
79650;SDS011;69121;41.708;21.762;2023-04-15T13:49:20;6.25;;;3.53;;
79650;SDS011;69121;41.708;21.762;2023-04-15T13:51:46;11.50;;;10.00;;
79650;SDS011;69121;41.708;21.762;2023-04-15T13:54:15;21.55;;;14.63;;
79650;SDS011;69121;41.708;21.762;2023-04-15T13:56:41;6.03;;;2.60;;
79650;SDS011;69121;41.708;21.762;2023-04-15T13:59:07;2.50;;;1.85;;
79650;SDS011;69121;41.708;21.762;2023-04-15T14:04:05;9.10;;;3.42;;
79650;SDS011;69121;41.708;21.762;2023-04-15T14:06:31;9.45;;;3.28;;
79650;SDS011;69121;41.708;21.762;2023-04-15T14:08:57;7.28;;;2.65;;
79650;SDS011;69121;41.708;21.762;2023-04-15T14:11:23;7.07;;;3.90;;
79650;SDS011;69121;41.708;21.762;2023-04-15T14:13:50;6.50;;;3.38;;
79650;SDS011;69121;41.708;21.762;2023-04-15T14:16:16;7.65;;;3.67;;
79650;SDS011;69121;41.708;21.762;2023-04-15T14:18:43;9.32;;;4.30;;
79650;SDS011;69121;41.708;21.762;2023-04-15T14:21:09;7.20;;;3.72;;
79650;SDS011;69121;41.708;21.762;2023-04-15T14:23:35;7.00;;;3.50;;
79650;SDS011;69121;41.708;21.762;2023-04-15T14:26:01;5.78;;;3.50;;
79650;SDS011;69121;41.708;21.762;2023-04-15T14:28:28;8.55;;;3.50;;
79650;SDS011;69121;41.708;21.762;2023-04-15T14:30:54;10.35;;;4.55;;
79650;SDS011;69121;41.708;21.762;2023-04-15T14:33:20;7.28;;;3.55;;
79650;SDS011;69121;41.708;21.762;2023-04-15T14:35:48;9.90;;;4.43;;
79650;SDS011;69121;41.708;21.762;2023-04-15T14:38:14;8.52;;;4.38;;
79650;SDS011;69121;41.708;21.762;2023-04-15T14:40:40;10.48;;;4.32;;
79650;SDS011;69121;41.708;21.762;2023-04-15T14:43:06;9.75;;;4.68;;
79650;SDS011;69121;41.708;21.762;2023-04-15T14:45:33;9.38;;;4.55;;
79650;SDS011;69121;41.708;21.762;2023-04-15T14:48:00;23.35;;;12.20;;
79650;SDS011;69121;41.708;21.762;2023-04-15T14:50:26;9.27;;;4.35;;
79650;SDS011;69121;41.708;21.762;2023-04-15T14:52:53;5.30;;;2.67;;
79650;SDS011;69121;41.708;21.762;2023-04-15T14:55:19;7.45;;;3.03;;
79650;SDS011;69121;41.708;21.762;2023-04-15T14:57:45;4.18;;;2.30;;
79650;SDS011;69121;41.708;21.762;2023-04-15T15:00:11;6.05;;;2.42;;
79650;SDS011;69121;41.708;21.762;2023-04-15T15:02:37;5.38;;;2.60;;
79650;SDS011;69121;41.708;21.762;2023-04-15T15:05:03;6.60;;;2.45;;
79650;SDS011;69121;41.708;21.762;2023-04-15T15:07:30;9.43;;;3.47;;
79650;SDS011;69121;41.708;21.762;2023-04-15T15:09:56;6.53;;;3.40;;